sensor_id;sensor_type;location;lat;lon;timestamp;temperature;humidity
65854;DHT22;52627;48.838;2.402;2023-05-18T00:02:13;13.36;54.11
65854;DHT22;52627;48.838;2.402;2023-05-18T00:04:42;13.33;54.20
65854;DHT22;52627;48.838;2.402;2023-05-18T00:07:10;13.30;54.34
65854;DHT22;52627;48.838;2.402;2023-05-18T00:09:38;13.25;54.51
65854;DHT22;52627;48.838;2.402;2023-05-18T00:12:07;13.21;54.64
65854;DHT22;52627;48.838;2.402;2023-05-18T00:14:38;13.16;54.71
65854;DHT22;52627;48.838;2.402;2023-05-18T00:17:06;13.12;54.79
65854;DHT22;52627;48.838;2.402;2023-05-18T00:19:34;13.11;54.89
65854;DHT22;52627;48.838;2.402;2023-05-18T00:22:02;13.08;55.09
65854;DHT22;52627;48.838;2.402;2023-05-18T00:24:30;13.03;55.15
65854;DHT22;52627;48.838;2.402;2023-05-18T00:26:57;13.01;55.21
65854;DHT22;52627;48.838;2.402;2023-05-18T00:29:25;12.98;55.35
65854;DHT22;52627;48.838;2.402;2023-05-18T00:31:52;12.94;55.51
65854;DHT22;52627;48.838;2.402;2023-05-18T00:34:20;12.90;55.61
65854;DHT22;52627;48.838;2.402;2023-05-18T00:36:47;12.88;55.67
65854;DHT22;52627;48.838;2.402;2023-05-18T00:39:15;12.87;55.71
65854;DHT22;52627;48.838;2.402;2023-05-18T00:41:42;12.85;55.83
65854;DHT22;52627;48.838;2.402;2023-05-18T00:44:10;12.82;55.87
65854;DHT22;52627;48.838;2.402;2023-05-18T00:46:37;12.81;55.96
65854;DHT22;52627;48.838;2.402;2023-05-18T00:49:05;12.80;56.02
65854;DHT22;52627;48.838;2.402;2023-05-18T00:51:33;12.77;56.10
65854;DHT22;52627;48.838;2.402;2023-05-18T00:54:01;12.76;56.21
65854;DHT22;52627;48.838;2.402;2023-05-18T00:56:29;12.73;56.31
65854;DHT22;52627;48.838;2.402;2023-05-18T00:59:00;12.71;56.36
65854;DHT22;52627;48.838;2.402;2023-05-18T01:01:30;12.69;56.51
65854;DHT22;52627;48.838;2.402;2023-05-18T01:04:03;12.67;56.60
65854;DHT22;52627;48.838;2.402;2023-05-18T01:06:31;12.65;56.66
65854;DHT22;52627;48.838;2.402;2023-05-18T01:09:03;12.63;56.72
65854;DHT22;52627;48.838;2.402;2023-05-18T01:14:34;12.59;56.87
65854;DHT22;52627;48.838;2.402;2023-05-18T01:17:14;12.55;57.04
65854;DHT22;52627;48.838;2.402;2023-05-18T01:28:15;12.46;57.38
65854;DHT22;52627;48.838;2.402;2023-05-18T01:30:47;12.44;57.46
65854;DHT22;52627;48.838;2.402;2023-05-18T01:33:15;12.43;57.59
65854;DHT22;52627;48.838;2.402;2023-05-18T01:35:42;12.41;57.62
65854;DHT22;52627;48.838;2.402;2023-05-18T01:38:16;12.40;57.70
65854;DHT22;52627;48.838;2.402;2023-05-18T01:43:35;12.36;57.84
65854;DHT22;52627;48.838;2.402;2023-05-18T01:46:09;12.34;57.91
65854;DHT22;52627;48.838;2.402;2023-05-18T01:48:55;12.33;58.04
65854;DHT22;52627;48.838;2.402;2023-05-18T01:51:42;12.33;58.07
65854;DHT22;52627;48.838;2.402;2023-05-18T01:54:12;12.31;58.19
65854;DHT22;52627;48.838;2.402;2023-05-18T01:56:43;12.32;58.22
65854;DHT22;52627;48.838;2.402;2023-05-18T01:59:13;12.29;58.31
65854;DHT22;52627;48.838;2.402;2023-05-18T02:01:41;12.26;58.43
65854;DHT22;52627;48.838;2.402;2023-05-18T02:04:11;12.22;58.55
65854;DHT22;52627;48.838;2.402;2023-05-18T02:06:38;12.19;58.60
65854;DHT22;52627;48.838;2.402;2023-05-18T02:09:06;12.17;58.67
65854;DHT22;52627;48.838;2.402;2023-05-18T02:11:33;12.14;58.77
65854;DHT22;52627;48.838;2.402;2023-05-18T02:14:01;12.12;58.85
65854;DHT22;52627;48.838;2.402;2023-05-18T02:16:28;12.10;59.00
65854;DHT22;52627;48.838;2.402;2023-05-18T02:18:56;12.07;59.15
65854;DHT22;52627;48.838;2.402;2023-05-18T02:21:26;12.03;59.22
65854;DHT22;52627;48.838;2.402;2023-05-18T02:23:53;12.01;59.30
65854;DHT22;52627;48.838;2.402;2023-05-18T02:26:20;12.00;59.36
65854;DHT22;52627;48.838;2.402;2023-05-18T02:28:48;11.97;59.46
65854;DHT22;52627;48.838;2.402;2023-05-18T02:31:15;11.96;59.52
65854;DHT22;52627;48.838;2.402;2023-05-18T02:33:43;11.94;59.60
65854;DHT22;52627;48.838;2.402;2023-05-18T02:36:11;11.91;59.69
65854;DHT22;52627;48.838;2.402;2023-05-18T02:38:40;11.88;59.80
65854;DHT22;52627;48.838;2.402;2023-05-18T02:41:09;11.87;59.85
65854;DHT22;52627;48.838;2.402;2023-05-18T02:43:37;11.83;59.89
65854;DHT22;52627;48.838;2.402;2023-05-18T02:46:04;11.81;60.01
65854;DHT22;52627;48.838;2.402;2023-05-18T02:48:32;11.77;60.18
65854;DHT22;52627;48.838;2.402;2023-05-18T02:51:00;11.73;60.32
65854;DHT22;52627;48.838;2.402;2023-05-18T02:53:27;11.70;60.41
65854;DHT22;52627;48.838;2.402;2023-05-18T02:55:55;11.67;60.48
65854;DHT22;52627;48.838;2.402;2023-05-18T02:58:25;11.63;60.55
65854;DHT22;52627;48.838;2.402;2023-05-18T03:00:52;11.60;60.68
65854;DHT22;52627;48.838;2.402;2023-05-18T03:03:26;11.57;60.76
65854;DHT22;52627;48.838;2.402;2023-05-18T03:05:54;11.55;60.90
65854;DHT22;52627;48.838;2.402;2023-05-18T03:08:21;11.51;60.98
65854;DHT22;52627;48.838;2.402;2023-05-18T03:10:48;11.49;61.02
65854;DHT22;52627;48.838;2.402;2023-05-18T03:13:16;11.47;61.13
65854;DHT22;52627;48.838;2.402;2023-05-18T03:15:44;11.45;61.18
65854;DHT22;52627;48.838;2.402;2023-05-18T03:18:11;11.42;61.28
65854;DHT22;52627;48.838;2.402;2023-05-18T03:20:39;11.39;61.40
65854;DHT22;52627;48.838;2.402;2023-05-18T03:23:06;11.35;61.45
65854;DHT22;52627;48.838;2.402;2023-05-18T03:25:35;11.33;61.47
65854;DHT22;52627;48.838;2.402;2023-05-18T03:28:05;11.32;61.58
65854;DHT22;52627;48.838;2.402;2023-05-18T03:30:33;11.31;61.65
65854;DHT22;52627;48.838;2.402;2023-05-18T03:33:01;11.28;61.70
65854;DHT22;52627;48.838;2.402;2023-05-18T03:35:29;11.27;61.79
65854;DHT22;52627;48.838;2.402;2023-05-18T03:37:57;11.26;61.84
65854;DHT22;52627;48.838;2.402;2023-05-18T03:40:24;11.25;61.89
65854;DHT22;52627;48.838;2.402;2023-05-18T03:42:52;11.23;61.96
65854;DHT22;52627;48.838;2.402;2023-05-18T03:45:19;11.22;62.09
65854;DHT22;52627;48.838;2.402;2023-05-18T03:47:47;11.21;62.13
65854;DHT22;52627;48.838;2.402;2023-05-18T03:50:15;11.20;62.17
65854;DHT22;52627;48.838;2.402;2023-05-18T03:52:42;11.17;62.22
65854;DHT22;52627;48.838;2.402;2023-05-18T03:55:10;11.16;62.29
65854;DHT22;52627;48.838;2.402;2023-05-18T03:57:39;11.14;62.37
65854;DHT22;52627;48.838;2.402;2023-05-18T04:00:06;11.12;62.42
65854;DHT22;52627;48.838;2.402;2023-05-18T04:02:38;11.11;62.48
65854;DHT22;52627;48.838;2.402;2023-05-18T04:05:06;11.11;62.56
65854;DHT22;52627;48.838;2.402;2023-05-18T04:07:36;11.12;62.60
65854;DHT22;52627;48.838;2.402;2023-05-18T04:10:10;11.12;62.61
65854;DHT22;52627;48.838;2.402;2023-05-18T04:12:39;11.11;62.65
65854;DHT22;52627;48.838;2.402;2023-05-18T04:15:07;11.10;62.69
65854;DHT22;52627;48.838;2.402;2023-05-18T04:17:35;11.10;62.77
65854;DHT22;52627;48.838;2.402;2023-05-18T04:20:03;11.08;62.87
65854;DHT22;52627;48.838;2.402;2023-05-18T04:22:40;11.06;62.98
65854;DHT22;52627;48.838;2.402;2023-05-18T04:25:15;11.04;63.00
65854;DHT22;52627;48.838;2.402;2023-05-18T04:27:42;11.03;63.04
65854;DHT22;52627;48.838;2.402;2023-05-18T04:30:17;11.02;63.10
65854;DHT22;52627;48.838;2.402;2023-05-18T04:32:45;11.04;63.13
65854;DHT22;52627;48.838;2.402;2023-05-18T04:35:12;11.02;63.22
65854;DHT22;52627;48.838;2.402;2023-05-18T04:37:40;11.03;63.27
65854;DHT22;52627;48.838;2.402;2023-05-18T04:40:09;11.05;63.28
65854;DHT22;52627;48.838;2.402;2023-05-18T04:42:43;11.05;63.34
65854;DHT22;52627;48.838;2.402;2023-05-18T04:45:14;11.03;63.42
65854;DHT22;52627;48.838;2.402;2023-05-18T04:47:49;11.04;63.47
65854;DHT22;52627;48.838;2.402;2023-05-18T04:50:21;11.05;63.50
65854;DHT22;52627;48.838;2.402;2023-05-18T04:52:52;11.06;63.50
65854;DHT22;52627;48.838;2.402;2023-05-18T04:55:24;11.08;63.56
65854;DHT22;52627;48.838;2.402;2023-05-18T04:57:55;11.09;63.60
65854;DHT22;52627;48.838;2.402;2023-05-18T05:00:24;11.12;63.59
65854;DHT22;52627;48.838;2.402;2023-05-18T05:02:53;11.15;63.61
65854;DHT22;52627;48.838;2.402;2023-05-18T05:05:22;11.17;63.67
65854;DHT22;52627;48.838;2.402;2023-05-18T05:07:52;11.19;63.70
65854;DHT22;52627;48.838;2.402;2023-05-18T05:10:20;11.23;63.68
65854;DHT22;52627;48.838;2.402;2023-05-18T05:12:49;11.27;63.70
65854;DHT22;52627;48.838;2.402;2023-05-18T05:15:17;11.32;63.66
65854;DHT22;52627;48.838;2.402;2023-05-18T05:17:46;11.36;63.59
65854;DHT22;52627;48.838;2.402;2023-05-18T05:20:14;11.40;63.60
65854;DHT22;52627;48.838;2.402;2023-05-18T05:22:43;11.43;63.56
65854;DHT22;52627;48.838;2.402;2023-05-18T05:25:10;11.49;63.50
65854;DHT22;52627;48.838;2.402;2023-05-18T05:27:38;11.53;63.49
65854;DHT22;52627;48.838;2.402;2023-05-18T05:30:08;11.56;63.46
65854;DHT22;52627;48.838;2.402;2023-05-18T05:32:36;11.59;63.47
65854;DHT22;52627;48.838;2.402;2023-05-18T05:35:04;11.62;63.40
65854;DHT22;52627;48.838;2.402;2023-05-18T05:37:33;11.61;63.40
65854;DHT22;52627;48.838;2.402;2023-05-18T05:40:01;11.65;63.37
65854;DHT22;52627;48.838;2.402;2023-05-18T05:42:29;11.68;63.32
65854;DHT22;52627;48.838;2.402;2023-05-18T05:44:56;11.72;63.30
65854;DHT22;52627;48.838;2.402;2023-05-18T05:47:24;11.75;63.25
65854;DHT22;52627;48.838;2.402;2023-05-18T05:49:51;11.76;63.19
65854;DHT22;52627;48.838;2.402;2023-05-18T05:52:19;11.78;63.12
65854;DHT22;52627;48.838;2.402;2023-05-18T05:54:46;11.83;63.10
65854;DHT22;52627;48.838;2.402;2023-05-18T05:57:14;11.92;63.07
65854;DHT22;52627;48.838;2.402;2023-05-18T05:59:41;11.98;62.97
65854;DHT22;52627;48.838;2.402;2023-05-18T06:02:08;12.05;62.95
65854;DHT22;52627;48.838;2.402;2023-05-18T06:04:36;12.12;62.86
65854;DHT22;52627;48.838;2.402;2023-05-18T06:07:04;12.16;62.71
65854;DHT22;52627;48.838;2.402;2023-05-18T06:09:32;12.23;62.63
65854;DHT22;52627;48.838;2.402;2023-05-18T06:11:59;12.30;62.52
65854;DHT22;52627;48.838;2.402;2023-05-18T06:14:27;12.39;62.38
65854;DHT22;52627;48.838;2.402;2023-05-18T06:16:54;12.44;62.20
65854;DHT22;52627;48.838;2.402;2023-05-18T06:19:22;12.51;62.12
65854;DHT22;52627;48.838;2.402;2023-05-18T06:21:49;12.60;62.00
65854;DHT22;52627;48.838;2.402;2023-05-18T06:24:17;12.70;61.84
65854;DHT22;52627;48.838;2.402;2023-05-18T06:26:44;12.82;61.74
65854;DHT22;52627;48.838;2.402;2023-05-18T06:29:12;12.98;61.59
65854;DHT22;52627;48.838;2.402;2023-05-18T06:31:39;13.13;61.40
65854;DHT22;52627;48.838;2.402;2023-05-18T06:34:07;13.31;61.15
65854;DHT22;52627;48.838;2.402;2023-05-18T06:36:34;13.43;60.89
65854;DHT22;52627;48.838;2.402;2023-05-18T06:39:02;13.56;60.74
65854;DHT22;52627;48.838;2.402;2023-05-18T06:41:31;13.70;60.50
65854;DHT22;52627;48.838;2.402;2023-05-18T06:43:59;13.88;60.26
65854;DHT22;52627;48.838;2.402;2023-05-18T06:46:28;14.10;60.03
65854;DHT22;52627;48.838;2.402;2023-05-18T06:48:55;14.44;59.64
65854;DHT22;52627;48.838;2.402;2023-05-18T06:51:23;14.72;59.35
65854;DHT22;52627;48.838;2.402;2023-05-18T06:53:50;14.99;59.07
65854;DHT22;52627;48.838;2.402;2023-05-18T06:56:18;15.23;58.70
65854;DHT22;52627;48.838;2.402;2023-05-18T06:58:45;15.47;58.39
65854;DHT22;52627;48.838;2.402;2023-05-18T07:01:13;15.81;58.04
65854;DHT22;52627;48.838;2.402;2023-05-18T07:03:41;16.16;57.38
65854;DHT22;52627;48.838;2.402;2023-05-18T07:06:08;16.49;56.87
65854;DHT22;52627;48.838;2.402;2023-05-18T07:08:36;16.91;56.48
65854;DHT22;52627;48.838;2.402;2023-05-18T07:11:04;17.36;55.82
65854;DHT22;52627;48.838;2.402;2023-05-18T07:13:31;17.88;55.51
65854;DHT22;52627;48.838;2.402;2023-05-18T07:15:59;18.45;54.98
65854;DHT22;52627;48.838;2.402;2023-05-18T07:18:27;18.95;54.21
65854;DHT22;52627;48.838;2.402;2023-05-18T07:20:54;19.26;53.33
65854;DHT22;52627;48.838;2.402;2023-05-18T07:23:22;19.46;52.78
65854;DHT22;52627;48.838;2.402;2023-05-18T07:25:49;19.73;52.33
65854;DHT22;52627;48.838;2.402;2023-05-18T07:28:17;20.05;51.82
65854;DHT22;52627;48.838;2.402;2023-05-18T07:30:44;20.40;51.19
65854;DHT22;52627;48.838;2.402;2023-05-18T07:33:12;20.76;50.62
65854;DHT22;52627;48.838;2.402;2023-05-18T07:35:39;21.23;49.89
65854;DHT22;52627;48.838;2.402;2023-05-18T07:38:07;21.63;49.01
65854;DHT22;52627;48.838;2.402;2023-05-18T07:40:34;21.96;48.26
65854;DHT22;52627;48.838;2.402;2023-05-18T07:43:02;22.28;47.73
65854;DHT22;52627;48.838;2.402;2023-05-18T07:45:29;22.63;47.02
65854;DHT22;52627;48.838;2.402;2023-05-18T07:47:58;22.85;46.13
65854;DHT22;52627;48.838;2.402;2023-05-18T07:50:26;23.00;45.49
65854;DHT22;52627;48.838;2.402;2023-05-18T07:52:55;23.13;44.85
65854;DHT22;52627;48.838;2.402;2023-05-18T07:55:23;23.26;44.19
65854;DHT22;52627;48.838;2.402;2023-05-18T07:57:50;23.40;43.64
65854;DHT22;52627;48.838;2.402;2023-05-18T08:00:18;23.27;42.48
65854;DHT22;52627;48.838;2.402;2023-05-18T08:02:46;23.17;42.07
65854;DHT22;52627;48.838;2.402;2023-05-18T08:05:14;23.18;41.37
65854;DHT22;52627;48.838;2.402;2023-05-18T08:07:42;23.34;40.94
65854;DHT22;52627;48.838;2.402;2023-05-18T08:10:10;23.68;40.59
65854;DHT22;52627;48.838;2.402;2023-05-18T08:12:37;23.96;40.12
65854;DHT22;52627;48.838;2.402;2023-05-18T08:15:05;24.28;39.74
65854;DHT22;52627;48.838;2.402;2023-05-18T08:17:34;24.54;39.06
65854;DHT22;52627;48.838;2.402;2023-05-18T08:20:02;24.69;38.54
65854;DHT22;52627;48.838;2.402;2023-05-18T08:22:31;24.89;38.12
65854;DHT22;52627;48.838;2.402;2023-05-18T08:24:58;24.93;37.78
65854;DHT22;52627;48.838;2.402;2023-05-18T08:27:27;24.89;37.60
65854;DHT22;52627;48.838;2.402;2023-05-18T08:29:56;24.70;37.22
65854;DHT22;52627;48.838;2.402;2023-05-18T08:32:23;24.51;36.79
65854;DHT22;52627;48.838;2.402;2023-05-18T08:34:51;24.29;36.47
65854;DHT22;52627;48.838;2.402;2023-05-18T08:37:19;23.97;36.14
65854;DHT22;52627;48.838;2.402;2023-05-18T08:39:48;23.53;35.90
65854;DHT22;52627;48.838;2.402;2023-05-18T08:42:21;23.16;35.83
65854;DHT22;52627;48.838;2.402;2023-05-18T08:48:18;22.40;35.77
65854;DHT22;52627;48.838;2.402;2023-05-18T08:50:53;22.23;35.81
65854;DHT22;52627;48.838;2.402;2023-05-18T08:53:24;22.28;35.68
65854;DHT22;52627;48.838;2.402;2023-05-18T08:55:55;22.30;35.68
65854;DHT22;52627;48.838;2.402;2023-05-18T08:58:34;22.28;35.67
65854;DHT22;52627;48.838;2.402;2023-05-18T09:01:07;22.23;35.67
65854;DHT22;52627;48.838;2.402;2023-05-18T09:03:35;22.28;35.63
65854;DHT22;52627;48.838;2.402;2023-05-18T09:06:04;22.29;35.58
65854;DHT22;52627;48.838;2.402;2023-05-18T09:08:33;22.28;35.66
65854;DHT22;52627;48.838;2.402;2023-05-18T09:11:02;22.35;35.62
65854;DHT22;52627;48.838;2.402;2023-05-18T09:13:30;22.47;35.61
65854;DHT22;52627;48.838;2.402;2023-05-18T09:15:57;22.62;35.42
65854;DHT22;52627;48.838;2.402;2023-05-18T09:18:25;22.87;35.34
65854;DHT22;52627;48.838;2.402;2023-05-18T09:20:54;23.19;35.20
65854;DHT22;52627;48.838;2.402;2023-05-18T09:23:22;23.60;35.18
65854;DHT22;52627;48.838;2.402;2023-05-18T09:25:50;24.02;34.92
65854;DHT22;52627;48.838;2.402;2023-05-18T09:31:09;24.75;34.58
65854;DHT22;52627;48.838;2.402;2023-05-18T09:33:43;25.15;34.15
65854;DHT22;52627;48.838;2.402;2023-05-18T09:36:12;25.40;33.96
65854;DHT22;52627;48.838;2.402;2023-05-18T09:38:44;25.56;33.69
65854;DHT22;52627;48.838;2.402;2023-05-18T09:41:13;25.73;33.35
65854;DHT22;52627;48.838;2.402;2023-05-18T09:43:44;25.85;33.19
65854;DHT22;52627;48.838;2.402;2023-05-18T09:46:14;26.08;33.06
65854;DHT22;52627;48.838;2.402;2023-05-18T09:48:44;26.26;32.50
65854;DHT22;52627;48.838;2.402;2023-05-18T09:51:14;26.39;32.17
65854;DHT22;52627;48.838;2.402;2023-05-18T09:53:48;26.55;31.74
65854;DHT22;52627;48.838;2.402;2023-05-18T09:56:19;26.66;31.43
65854;DHT22;52627;48.838;2.402;2023-05-18T09:58:47;26.67;31.14
65854;DHT22;52627;48.838;2.402;2023-05-18T10:01:14;26.63;30.84
65854;DHT22;52627;48.838;2.402;2023-05-18T10:03:42;26.54;30.48
65854;DHT22;52627;48.838;2.402;2023-05-18T10:06:11;26.39;30.21
65854;DHT22;52627;48.838;2.402;2023-05-18T10:08:39;26.21;29.94
65854;DHT22;52627;48.838;2.402;2023-05-18T10:11:07;25.94;29.64
65854;DHT22;52627;48.838;2.402;2023-05-18T10:13:35;25.76;29.67
65854;DHT22;52627;48.838;2.402;2023-05-18T10:16:04;25.72;29.47
65854;DHT22;52627;48.838;2.402;2023-05-18T10:18:34;25.70;29.47
65854;DHT22;52627;48.838;2.402;2023-05-18T10:21:04;25.84;29.48
65854;DHT22;52627;48.838;2.402;2023-05-18T10:23:34;25.94;29.39
65854;DHT22;52627;48.838;2.402;2023-05-18T10:26:04;26.10;29.33
65854;DHT22;52627;48.838;2.402;2023-05-18T10:28:42;26.23;29.09
65854;DHT22;52627;48.838;2.402;2023-05-18T10:31:18;26.31;28.97
65854;DHT22;52627;48.838;2.402;2023-05-18T10:33:46;26.32;28.85
65854;DHT22;52627;48.838;2.402;2023-05-18T10:36:14;26.39;28.66
65854;DHT22;52627;48.838;2.402;2023-05-18T10:38:44;26.17;28.42
65854;DHT22;52627;48.838;2.402;2023-05-18T10:41:13;26.05;28.45
65854;DHT22;52627;48.838;2.402;2023-05-18T10:43:42;26.05;28.43
65854;DHT22;52627;48.838;2.402;2023-05-18T10:46:11;26.01;28.41
65854;DHT22;52627;48.838;2.402;2023-05-18T10:48:42;25.85;28.16
65854;DHT22;52627;48.838;2.402;2023-05-18T10:51:12;25.52;27.98
65854;DHT22;52627;48.838;2.402;2023-05-18T10:53:41;25.15;27.87
65854;DHT22;52627;48.838;2.402;2023-05-18T10:56:10;24.85;27.84
65854;DHT22;52627;48.838;2.402;2023-05-18T10:58:37;24.80;28.04
65854;DHT22;52627;48.838;2.402;2023-05-18T11:01:08;24.98;28.03
65854;DHT22;52627;48.838;2.402;2023-05-18T11:03:37;25.24;28.11
65854;DHT22;52627;48.838;2.402;2023-05-18T11:06:09;25.48;28.09
65854;DHT22;52627;48.838;2.402;2023-05-18T11:08:56;25.64;27.94
65854;DHT22;52627;48.838;2.402;2023-05-18T11:11:24;25.38;27.74
65854;DHT22;52627;48.838;2.402;2023-05-18T11:14:00;25.30;27.81
65854;DHT22;52627;48.838;2.402;2023-05-18T11:16:35;25.31;27.68
65854;DHT22;52627;48.838;2.402;2023-05-18T11:19:06;25.37;27.59
65854;DHT22;52627;48.838;2.402;2023-05-18T11:26:52;25.56;27.59
65854;DHT22;52627;48.838;2.402;2023-05-18T11:29:36;25.51;27.40
65854;DHT22;52627;48.838;2.402;2023-05-18T11:32:21;25.19;27.04
65854;DHT22;52627;48.838;2.402;2023-05-18T11:34:57;24.96;27.25
65854;DHT22;52627;48.838;2.402;2023-05-18T11:40:08;25.14;26.82
65854;DHT22;52627;48.838;2.402;2023-05-18T11:42:38;25.19;26.83
65854;DHT22;52627;48.838;2.402;2023-05-18T11:45:06;25.30;26.87
65854;DHT22;52627;48.838;2.402;2023-05-18T11:47:36;25.39;26.82
65854;DHT22;52627;48.838;2.402;2023-05-18T11:50:09;25.40;26.93
65854;DHT22;52627;48.838;2.402;2023-05-18T11:52:50;25.43;27.08
65854;DHT22;52627;48.838;2.402;2023-05-18T11:55:19;25.54;27.21
65854;DHT22;52627;48.838;2.402;2023-05-18T11:57:47;25.60;27.27
65854;DHT22;52627;48.838;2.402;2023-05-18T12:00:20;25.68;27.36
65854;DHT22;52627;48.838;2.402;2023-05-18T12:02:50;25.73;27.19
65854;DHT22;52627;48.838;2.402;2023-05-18T12:05:19;25.61;27.09
65854;DHT22;52627;48.838;2.402;2023-05-18T12:07:50;25.27;27.06
65854;DHT22;52627;48.838;2.402;2023-05-18T12:10:21;25.13;27.28
65854;DHT22;52627;48.838;2.402;2023-05-18T12:12:50;25.08;27.28
65854;DHT22;52627;48.838;2.402;2023-05-18T12:15:22;25.03;27.50
65854;DHT22;52627;48.838;2.402;2023-05-18T12:17:51;25.14;27.43
65854;DHT22;52627;48.838;2.402;2023-05-18T12:20:20;25.25;27.56
65854;DHT22;52627;48.838;2.402;2023-05-18T12:22:54;25.40;27.55
65854;DHT22;52627;48.838;2.402;2023-05-18T12:25:24;25.42;27.46
65854;DHT22;52627;48.838;2.402;2023-05-18T12:27:54;25.11;27.15
65854;DHT22;52627;48.838;2.402;2023-05-18T12:30:23;24.60;27.35
65854;DHT22;52627;48.838;2.402;2023-05-18T12:33:02;24.19;27.38
65854;DHT22;52627;48.838;2.402;2023-05-18T12:35:30;23.96;27.53
65854;DHT22;52627;48.838;2.402;2023-05-18T12:38:00;23.87;27.67
65854;DHT22;52627;48.838;2.402;2023-05-18T12:40:35;23.93;27.81
65854;DHT22;52627;48.838;2.402;2023-05-18T12:43:12;24.15;28.00
65854;DHT22;52627;48.838;2.402;2023-05-18T12:45:42;24.29;28.07
65854;DHT22;52627;48.838;2.402;2023-05-18T12:48:11;24.59;28.25
65854;DHT22;52627;48.838;2.402;2023-05-18T12:50:44;24.90;28.30
65854;DHT22;52627;48.838;2.402;2023-05-18T12:53:13;25.10;28.51
65854;DHT22;52627;48.838;2.402;2023-05-18T12:55:41;25.25;28.55
65854;DHT22;52627;48.838;2.402;2023-05-18T12:58:12;25.30;28.60
65854;DHT22;52627;48.838;2.402;2023-05-18T13:00:46;25.37;28.62
65854;DHT22;52627;48.838;2.402;2023-05-18T13:03:15;25.31;28.68
65854;DHT22;52627;48.838;2.402;2023-05-18T13:06:03;25.31;28.87
65854;DHT22;52627;48.838;2.402;2023-05-18T13:08:33;25.48;28.87
65854;DHT22;52627;48.838;2.402;2023-05-18T13:11:02;25.66;28.90
65854;DHT22;52627;48.838;2.402;2023-05-18T13:13:59;25.85;28.87
65854;DHT22;52627;48.838;2.402;2023-05-18T13:16:32;25.98;28.74
65854;DHT22;52627;48.838;2.402;2023-05-18T13:19:01;26.10;28.72
65854;DHT22;52627;48.838;2.402;2023-05-18T13:21:33;26.24;28.64
65854;DHT22;52627;48.838;2.402;2023-05-18T13:24:02;26.15;28.23
65854;DHT22;52627;48.838;2.402;2023-05-18T13:26:30;25.76;28.21
65854;DHT22;52627;48.838;2.402;2023-05-18T13:28:59;25.41;28.28
65854;DHT22;52627;48.838;2.402;2023-05-18T13:31:26;25.40;28.52
65854;DHT22;52627;48.838;2.402;2023-05-18T13:33:55;25.55;28.60
65854;DHT22;52627;48.838;2.402;2023-05-18T13:36:23;25.58;28.55
65854;DHT22;52627;48.838;2.402;2023-05-18T13:38:50;25.33;28.69
65854;DHT22;52627;48.838;2.402;2023-05-18T13:41:18;25.25;28.83
65854;DHT22;52627;48.838;2.402;2023-05-18T13:43:46;25.24;28.79
65854;DHT22;52627;48.838;2.402;2023-05-18T13:46:13;25.20;28.89
65854;DHT22;52627;48.838;2.402;2023-05-18T13:48:41;25.25;28.95
65854;DHT22;52627;48.838;2.402;2023-05-18T13:51:08;25.35;28.99
65854;DHT22;52627;48.838;2.402;2023-05-18T13:53:36;25.32;29.00
65854;DHT22;52627;48.838;2.402;2023-05-18T13:56:06;25.10;29.15
65854;DHT22;52627;48.838;2.402;2023-05-18T13:58:34;24.85;29.31
65854;DHT22;52627;48.838;2.402;2023-05-18T14:01:02;24.69;29.38
65854;DHT22;52627;48.838;2.402;2023-05-18T14:03:34;24.45;29.26
65854;DHT22;52627;48.838;2.402;2023-05-18T14:06:03;24.19;29.20
65854;DHT22;52627;48.838;2.402;2023-05-18T14:08:30;23.91;29.25
65854;DHT22;52627;48.838;2.402;2023-05-18T14:10:58;23.70;29.20
65854;DHT22;52627;48.838;2.402;2023-05-18T14:13:25;23.54;29.20
65854;DHT22;52627;48.838;2.402;2023-05-18T14:15:53;23.41;29.24
65854;DHT22;52627;48.838;2.402;2023-05-18T14:18:20;23.31;29.26
65854;DHT22;52627;48.838;2.402;2023-05-18T14:20:48;23.20;29.31
65854;DHT22;52627;48.838;2.402;2023-05-18T14:23:15;23.09;29.39
65854;DHT22;52627;48.838;2.402;2023-05-18T14:25:42;23.01;29.39
65854;DHT22;52627;48.838;2.402;2023-05-18T14:28:11;22.92;29.38
65854;DHT22;52627;48.838;2.402;2023-05-18T14:30:39;22.83;29.41
65854;DHT22;52627;48.838;2.402;2023-05-18T14:33:07;22.80;29.45
65854;DHT22;52627;48.838;2.402;2023-05-18T14:35:35;22.75;29.51
65854;DHT22;52627;48.838;2.402;2023-05-18T14:38:02;22.65;29.62
65854;DHT22;52627;48.838;2.402;2023-05-18T14:40:30;22.51;29.82
65854;DHT22;52627;48.838;2.402;2023-05-18T14:42:58;22.38;29.98
65854;DHT22;52627;48.838;2.402;2023-05-18T14:45:25;22.35;30.18
65854;DHT22;52627;48.838;2.402;2023-05-18T14:47:53;22.31;30.35
65854;DHT22;52627;48.838;2.402;2023-05-18T14:50:20;22.28;30.44
65854;DHT22;52627;48.838;2.402;2023-05-18T14:52:48;22.30;30.54
65854;DHT22;52627;48.838;2.402;2023-05-18T14:55:15;22.35;30.60
65854;DHT22;52627;48.838;2.402;2023-05-18T14:57:43;22.33;30.60
65854;DHT22;52627;48.838;2.402;2023-05-18T15:00:11;22.23;30.56
65854;DHT22;52627;48.838;2.402;2023-05-18T15:02:39;22.16;30.66
65854;DHT22;52627;48.838;2.402;2023-05-18T15:05:07;22.14;30.72
65854;DHT22;52627;48.838;2.402;2023-05-18T15:07:35;22.12;30.72
65854;DHT22;52627;48.838;2.402;2023-05-18T15:10:03;22.10;30.64
65854;DHT22;52627;48.838;2.402;2023-05-18T15:12:32;22.05;30.57
65854;DHT22;52627;48.838;2.402;2023-05-18T15:14:59;21.99;30.52
65854;DHT22;52627;48.838;2.402;2023-05-18T15:17:27;21.97;30.43
65854;DHT22;52627;48.838;2.402;2023-05-18T15:19:54;21.94;30.32
65854;DHT22;52627;48.838;2.402;2023-05-18T15:22:22;21.85;30.28
65854;DHT22;52627;48.838;2.402;2023-05-18T15:24:49;21.79;30.40
65854;DHT22;52627;48.838;2.402;2023-05-18T15:27:17;21.80;30.46
65854;DHT22;52627;48.838;2.402;2023-05-18T15:29:44;21.80;30.53
65854;DHT22;52627;48.838;2.402;2023-05-18T15:32:13;21.78;30.70
65854;DHT22;52627;48.838;2.402;2023-05-18T15:34:41;21.80;30.87
65854;DHT22;52627;48.838;2.402;2023-05-18T15:37:08;21.78;30.93
65854;DHT22;52627;48.838;2.402;2023-05-18T15:39:36;21.73;31.07
65854;DHT22;52627;48.838;2.402;2023-05-18T15:42:04;21.68;31.25
65854;DHT22;52627;48.838;2.402;2023-05-18T15:44:32;21.67;31.47
65854;DHT22;52627;48.838;2.402;2023-05-18T15:47:00;21.67;31.63
65854;DHT22;52627;48.838;2.402;2023-05-18T15:49:27;21.65;31.71
65854;DHT22;52627;48.838;2.402;2023-05-18T15:51:55;21.61;31.79
65854;DHT22;52627;48.838;2.402;2023-05-18T15:54:23;21.55;31.84
65854;DHT22;52627;48.838;2.402;2023-05-18T15:56:50;21.49;31.78
65854;DHT22;52627;48.838;2.402;2023-05-18T15:59:18;21.42;31.84
65854;DHT22;52627;48.838;2.402;2023-05-18T16:01:45;21.37;31.96
65854;DHT22;52627;48.838;2.402;2023-05-18T16:04:13;21.37;32.05
65854;DHT22;52627;48.838;2.402;2023-05-18T16:06:41;21.36;32.17
65854;DHT22;52627;48.838;2.402;2023-05-18T16:09:08;21.34;32.24
65854;DHT22;52627;48.838;2.402;2023-05-18T16:11:36;21.30;32.33